Flight Track Log - Related Links

Times and Time Zones

All times are in EDT time to prevent confusion due to time zone crossing. See the GJS3710 flight status page for this flight to view local times or setup timezone preferences in your user account.

Time Position Orientation Groundspeed Altitude Reporting Facility
EDT Latitude Longitude Course Direction KTS MPH feet Rate Location/Type
Thu 09:43:07 PM 41.9833 -87.8628 92° East 195 224 1,700  Level Chicago Center
Thu 09:44:09 PM 41.9808 -87.7767 92° East 231 266 3,600 1,854 Climbing Chicago Center
Thu 09:45:10 PM 42.0011 -87.6867 73° East 282 325 5,500 2,098 Climbing Chicago Center
Thu 09:46:12 PM 42.0547 -87.7272 331° Northwest 262 302 7,900 2,274 Climbing Chicago Center
Thu 09:47:14 PM 42.1103 -87.7800 325° Northwest 270 311 10,200 2,516 Climbing Chicago Center
Thu 09:48:16 PM 42.2036 -87.7819 359° North 282 325 13,100 2,293 Climbing Chicago Center
Thu 09:49:17 PM 42.2817 -87.7781 North 283 326 14,900 1,742 Climbing Chicago Center
Thu 09:50:20 PM 42.3606 -87.7400 20° North 311 358 16,700 1,887 Climbing Chicago Center
Thu 09:51:21 PM 42.4364 -87.6692 35° Northeast 330 380 18,800 1,463 Climbing Chicago Center
Thu 09:52:23 PM 42.4836 -87.5536 61° Northeast 374 430 19,700 927 Climbing Chicago Center
Thu 09:53:24 PM 42.5092 -87.4017 77° East 408 470 20,700 1,073 Climbing Chicago Center
Thu 09:54:26 PM 42.5433 -87.2139 76° East 426 490 21,900 1,065 Climbing Chicago Center
Thu 09:55:28 PM 42.5725 -87.0500 76° East 444 511 22,900 1,016 Climbing Chicago Center
Thu 09:56:30 PM 42.6044 -86.8758 76° East 459 528 24,000 1,024 Climbing Chicago Center
Thu 09:57:31 PM 42.6336 -86.7039 77° East 467 537 25,000 976 Climbing Chicago Center
Thu 09:58:33 PM 42.6650 -86.5306 76° East 473 544 26,000 968 Climbing Chicago Center
Thu 09:59:35 PM 42.6950 -86.3572 77° East 475 547 27,000 968 Climbing Chicago Center
Thu 10:00:37 PM 42.7242 -86.1822 77° East 478 550 28,000 1,065 Climbing Chicago Center
Thu 10:01:39 PM 42.7811 -85.9853 68° East 475 547 29,200 1,073 Climbing Chicago Center
Thu 10:02:40 PM 42.8214 -85.8169 72° East 481 554 30,200 976 Climbing Chicago Center
Thu 10:03:42 PM 42.8492 -85.6428 78° East 482 555 31,200 968 Climbing Chicago Center
Thu 10:04:44 PM 42.8758 -85.4686 78° East 475 547 32,200 968 Climbing Chicago Center
Thu 10:05:46 PM 42.9033 -85.2961 78° East 470 541 33,200 1,073 Climbing Chicago Center
Thu 10:06:47 PM 42.9333 -85.0931 79° East 460 529 34,400 1,024 Climbing Chicago Center
Thu 10:07:49 PM 42.9581 -84.9244 79° East 455 524 35,300 726 Climbing Chicago Center
Thu 10:08:51 PM 42.9819 -84.7581 79° East 451 519 35,900 585 Climbing Chicago Center
Thu 10:09:52 PM 43.0053 -84.5917 79° East 448 516 36,500 537 Climbing Chicago Center
Thu 10:10:54 PM 43.0294 -84.4231 79° East 452 520 37,000 242 Climbing Chicago Center
Thu 10:11:56 PM 43.0408 -84.2508 85° East 463 533 37,000  Level Chicago Center
Thu 10:12:57 PM 43.0439 -84.0492 89° East 448 516 37,000  Level Cleveland Center
Thu 10:13:57 PM 43.0469 -83.8703 89° East 459 528 37,000  Level Cleveland Center
Thu 10:14:57 PM 43.0478 -83.6886 90° East 464 534 37,000  Level Cleveland Center
Thu 10:15:57 PM 43.0525 -83.5097 88° East 464 534 37,000  Level Cleveland Center
Thu 10:16:57 PM 43.0547 -83.3308 89° East 464 534 37,000  Level Cleveland Center
Thu 10:17:57 PM 43.0547 -83.1517 90° East 464 534 37,000  Level Cleveland Center
Thu 10:18:57 PM 43.0564 -82.9728 89° East 469 540 37,000  Level Cleveland Center
Thu 10:19:57 PM 43.0561 -82.7853 90° East 479 551 37,000  Level Cleveland Center
Thu 10:20:57 PM 43.0594 -82.6036 88° East 479 551 37,000  Level Cleveland Center
Thu 10:21:57 PM 43.0583 -82.4131 90° East 479 551 37,000  Level Cleveland Center
Thu 10:22:57 PM 43.0592 -82.2283 90° East 484 557 37,000  Level Cleveland Center
Thu 10:24:16 PM 43.0333 -81.9833 98° East 490 564 37,000  Level Toronto Center
Thu 10:25:15 PM 43.0500 -81.7833 83° East 490 564 37,000  Level Toronto Center
Thu 10:26:15 PM 43.0500 -81.6000 90° East 490 564 37,000  Level Toronto Center
Thu 10:27:15 PM 43.0500 -81.4167 90° East 500 575 37,000  Level Toronto Center
Thu 10:28:15 PM 43.0333 -81.2333 97° East 490 564 37,000  Level Toronto Center
Thu 10:29:15 PM 43.0333 -81.0500 90° East 490 564 37,000  Level Toronto Center
Thu 10:30:15 PM 43.0333 -80.8667 90° East 480 552 37,000  Level Toronto Center
Thu 10:31:15 PM 43.0500 -80.6667 83° East 480 552 37,000  Level Toronto Center
Thu 10:32:15 PM 43.0333 -80.5000 98° East 480 552 37,000  Level Toronto Center
Thu 10:33:15 PM 43.0333 -80.3000 90° East 480 552 37,000  Level Toronto Center
Thu 10:34:15 PM 43.0333 -80.1333 90° East 480 552 37,000  Level Toronto Center
Thu 10:35:15 PM 43.0333 -79.9333 90° East 480 552 37,000  Level Toronto Center
Thu 10:36:15 PM 43.0167 -79.7667 98° East 470 541 37,000  Level Toronto Center
Thu 10:37:15 PM 43.0167 -79.5833 90° East 470 541 37,000  Level Toronto Center
Thu 10:38:15 PM 43.0167 -79.4000 90° East 470 541 37,000  Level Toronto Center
Thu 10:39:15 PM 43.0167 -79.2167 90° East 470 541 37,000  Level Toronto Center
Thu 10:40:15 PM 43.0167 -79.0667 90° East 470 541 37,000  Level Toronto Center
Thu 10:41:15 PM 43.0000 -78.8833 97° East 460 529 37,000  Level Toronto Center
Thu 10:42:15 PM 43.0000 -78.7000 90° East 460 529 37,000 -350 Level Toronto Center
Thu 10:43:15 PM 43.0000 -78.5167 90° East 460 529 36,300 -850 Descending Toronto Center
Thu 10:44:15 PM 42.9833 -78.3500 98° East 450 518 35,300 -1,050 Descending Toronto Center
Thu 10:45:15 PM 42.9667 -78.1833 98° East 450 518 34,200 -1,000 Descending Toronto Center
Thu 10:46:15 PM 42.9667 -78.0167 90° East 450 518 33,300 -950 Descending Toronto Center
Thu 10:47:15 PM 42.9667 -77.8333 90° East 470 541 32,300 -1,050 Descending Toronto Center
Thu 10:48:15 PM 42.9667 -77.6667 90° East 440 506 31,200 -1,000 Descending Toronto Center
Thu 10:49:15 PM 42.9500 -77.5167 99° East 440 506 30,300 -1,000 Descending Toronto Center
Thu 10:50:15 PM 42.9333 -77.3333 97° East 440 506 29,200 -650 Descending Toronto Center
Thu 10:51:15 PM 42.9333 -77.1667 90° East 430 495 29,000 -113 Descending Toronto Center
Thu 10:52:01 PM 42.9436 -77.0783 81° East 457 526 29,000  Level Boston Center
Thu 10:53:01 PM 42.9358 -76.9131 94° East 445 512 29,000  Level Boston Center
Thu 10:54:01 PM 42.9278 -76.7394 94° East 445 512 29,000  Level Boston Center
Thu 10:55:01 PM 42.9197 -76.5631 94° East 456 525 29,000 -250 Level Boston Center
Thu 10:56:01 PM 42.9114 -76.3839 94° East 472 543 28,500 -550 Descending Boston Center
Thu 10:57:01 PM 42.9025 -76.2217 94° East 472 543 27,900 -300 Descending Boston Center
Thu 10:58:01 PM 42.8956 -76.0483 93° East 472 543 27,900 -550 Level Boston Center
Thu 10:59:01 PM 42.8842 -75.8747 95° East 466 536 26,800 -1,850 Descending Boston Center
Thu 11:00:01 PM 42.8747 -75.7042 94° East 455 524 24,200 -2,319 Descending Boston Center
Thu 11:01:00 PM 42.8658 -75.5706 95° East 450 518 22,200 -2,500 Descending Boston Center
Thu 11:02:01 PM 42.8564 -75.3803 94° East 431 496 19,200 -2,826 Descending Boston Center
Thu 11:03:01 PM 42.8456 -75.2294 96° East 416 479 16,500 -2,400 Descending Boston Center
Thu 11:04:01 PM 42.8386 -75.0878 94° East 392 451 14,400 -1,750 Descending Boston Center
Thu 11:05:01 PM 42.8292 -74.9486 95° East 377 434 13,000 -1,300 Descending Boston Center
Thu 11:06:01 PM 42.8194 -74.8150 96° East 360 414 11,800 -1,091 Descending Boston Center
Thu 11:06:51 PM 42.8117 -74.6872 95° East 369 425 11,000 -600 Descending Boston Center
Thu 11:07:21 PM 42.8050 -74.6106 97° East 373 429 11,000 86 Level Boston Center
Thu 11:08:01 PM 42.7997 -74.5456 96° East 356 410 11,100 -120 Climbing Boston Center
Thu 11:09:01 PM 42.7686 -74.4311 110° East 303 349 10,800 -900 Descending Boston Center
Thu 11:10:01 PM 42.7408 -74.3511 115° Southeast 272 313 9,300 -1,850 Descending Boston Center
Thu 11:11:01 PM 42.7069 -74.2483 114° Southeast 262 302 7,100 -1,720 Descending Boston Center
Thu 11:12:24 PM 42.6711 -74.1400 114° Southeast 262 302 5,200 -1,292 Descending Boston Center
Thu 11:13:25 PM 42.6372 -74.0403 115° Southeast 242 278 4,000 -595 Descending Boston Center
Thu 11:14:25 PM 42.6150 -73.9778 116° Southeast 235 270 4,000 -496 Level Boston Center
Thu 11:15:26 PM 42.5869 -73.8894 113° Southeast 218 251 3,000 -689 Descending Boston Center
Thu 11:16:27 PM 42.5817 -73.8275 97° East 182 209 2,600 -492 Descending Boston Center
Thu 11:17:28 PM 42.6297 -73.8003 23° Northeast 193 222 2,000 -387 Descending Boston Center
Thu 11:18:00 PM 42.6239 -73.7775 109° East 132 152 2,000 16,774 Level Boston Center
Thu 11:19:01 PM 42.6886 -73.7675 North 132 152 28,000 12,893 Climbing Boston Center
Thu 11:20:01 PM 42.7142 -73.7314 46° Northeast 132 152 28,000  Level Boston Center
Thu 11:21:01 PM 42.7414 -73.6981 42° Northeast 132 152 28,000  Level Boston Center

Login

Don't have an account? Register now (free) for customized features, flight alerts, and more!